Aérodrome :
LOGIN :

S'inscrire | Disclaimer

   EN    FR    IT 

 










Légende :    VFR   VFR Marginal   IFR   IFR Intensif   IFR Très Intensif
Visi : 
Plafond : 
>= 8 km
>= 3000ft
5 à 8 km
1000 à 3000 ft
1500m à 5 km
500 à 1000 ft
800 à 1500m
200 à 500 ft
< 800m
< 200 ft
Symboles :   Orages  Brouillard  Fortes neiges  Fortes précipitations  Vent > 20 kt
SIGMETs :   Divers  Orages  Givrage  Turbulence  Onde Orograph.  Cendres Volcan.






- Altitude de l'aérodrome : 584 ft


LFPV - Villacoublay Vélizy

DERNIER METAR :
  • 252200Z AUTO 23008KT 190V260 9999 BKN009 BKN240 09/08 Q1003 NOSIG

METARs EXPIRÉS :
  • 252130Z AUTO 21007KT 170V250 9999 OVC010 09/08 Q1003 NOSIG
  • 252100Z AUTO 21006KT 170V240 9999 BKN010 OVC230 10/09 Q1003 NOSIG
  • 252030Z AUTO 20006KT 170V240 9999 FEW011 SCT066 OVC230 10/09 Q1002 BECMG BKN009
  • 252000Z AUTO 20005KT 170V240 9999 FEW012 BKN078 OVC220 10/09 Q1002 TEMPO SCT012TCU
  • 251930Z AUTO 21006KT 180V240 9999 FEW005 BKN031 BKN064 10/10 Q1002 TEMPO SCT012TCU

TAF TAF LFPV
Valide du 25 à 21h jusqu'au 26 à 21h UTC


252000Z 2521/2621 20007KT 9999 FEW010 BKN068 BKN080 TX13/2614Z TN07/2607Z
BECMG 2521/2523 BKN009
BECMG 2605/2607 SCT009
TEMPO 2611/2619 SCT015TCU



MET'MAP, la Météo Aéronautique d'un coup d'oeil ! - Copyright ORBIFLY Décembre 2007 - Disclaimer

ORBIFLY MET'MAP TEAM :

Programmation & Développement : Alexandra Zaïnal
Sur une idée originale de : Baudouin d'Aumeries
Assistance à la programmation : Marc-Olivier Méhu
Soutien technique & logistique : Manuel Goepfert

Contact : metmap@orbifly.com




SOURCES & CREDITS :

   NOAA